Time;durP1;ratioP1;P1;durP2;ratioP2;P2;SDS_P1;SDS_P2;PMS_P1;PMS_P2;Temp;Humidity;BMP_temperature;BMP_pressure;BME280_temperature;BME280_humidity;BME280_pressure;Samples;Min_cycle;Max_cycle;Signal;HPM_P1;HPM_P2
2022/05/04 00:00:59;;;;;;;5.25;2.53;;;;;;;8.26;54.00;93933.66;4970844;28;20515;-69
2022/05/04 00:03:24;;;;;;;3.05;1.73;;;;;;;8.21;53.77;93934.53;4971675;28;20116;-69
2022/05/04 00:05:50;;;;;;;3.20;2.08;;;;;;;8.09;53.91;93913.03;4975211;28;20493;-69
2022/05/04 00:08:15;;;;;;;2.95;2.15;;;;;;;8.16;54.11;93926.69;4985183;28;20046;-68
2022/05/04 00:10:41;;;;;;;2.58;1.98;;;;;;;8.12;54.13;93928.34;4990210;28;20031;-69
2022/05/04 00:13:06;;;;;;;3.13;2.28;;;;;;;8.22;54.11;93943.28;4993012;28;20072;-68
2022/05/04 00:15:31;;;;;;;3.42;2.25;;;;;;;8.16;54.03;93937.28;4987834;28;20042;-69
2022/05/04 00:17:57;;;;;;;3.47;2.13;;;;;;;8.11;54.36;93934.75;4988820;28;20107;-69
2022/05/04 00:20:22;;;;;;;3.58;2.85;;;;;;;8.08;54.36;93928.16;4987963;28;20030;-68
2022/05/04 00:22:48;;;;;;;2.50;1.60;;;;;;;8.11;54.17;93929.44;4989393;28;20037;-68
2022/05/04 00:25:13;;;;;;;2.33;1.90;;;;;;;8.11;54.06;93934.75;4990290;28;20046;-68
2022/05/04 00:27:38;;;;;;;2.17;1.50;;;;;;;8.10;54.07;93922.56;4992303;28;20034;-69
2022/05/04 00:30:05;;;;;;;1.98;1.42;;;;;;;7.96;54.13;93917.28;4988057;28;20125;-68
2022/05/04 00:32:31;;;;;;;2.67;1.90;;;;;;;7.86;54.61;93904.22;4985935;28;20518;-69
2022/05/04 00:34:57;;;;;;;1.77;1.60;;;;;;;7.85;54.56;93907.16;4994505;28;20025;-68
2022/05/04 00:37:23;;;;;;;3.03;2.13;;;;;;;7.91;54.72;93927.97;4987358;28;20057;-69
2022/05/04 00:39:48;;;;;;;2.65;2.10;;;;;;;7.83;54.28;93904.78;4991322;28;20124;-68
2022/05/04 00:42:19;;;;;;;2.70;2.13;;;;;;;8.05;54.09;93933.25;4993558;28;20333;-69
2022/05/04 00:44:49;;;;;;;3.00;2.13;;;;;;;8.00;53.77;93934.13;4988429;28;20334;-69
2022/05/04 00:47:14;;;;;;;3.72;2.38;;;;;;;7.82;54.36;93924.41;4994018;28;20116;-69
2022/05/04 00:49:42;;;;;;;3.95;2.30;;;;;;;7.73;54.40;93922.75;4983179;28;20044;-67
2022/05/04 00:52:09;;;;;;;4.07;2.22;;;;;;;7.86;54.25;93929.91;4987527;28;20060;-70
2022/05/04 00:54:36;;;;;;;2.63;1.67;;;;;;;7.86;54.41;93945.78;4986770;28;20042;-67
2022/05/04 00:57:05;;;;;;;2.08;1.67;;;;;;;7.89;54.32;93945.19;4987470;28;20033;-68
2022/05/04 00:59:31;;;;;;;2.90;2.40;;;;;;;7.82;54.42;93950.91;4987062;28;20037;-69
2022/05/04 01:01:57;;;;;;;1.90;1.50;;;;;;;7.86;54.38;93956.38;4987251;28;20323;-68
2022/05/04 01:04:23;;;;;;;2.42;1.80;;;;;;;7.87;53.97;93955.31;4989085;28;20080;-69
2022/05/04 01:06:49;;;;;;;2.05;1.55;;;;;;;7.79;54.07;93964.69;4974985;28;20041;-68
2022/05/04 01:09:15;;;;;;;3.55;2.30;;;;;;;7.78;53.86;93967.66;4973716;28;20042;-69
2022/05/04 01:11:41;;;;;;;2.78;2.17;;;;;;;7.60;54.22;93946.19;4990370;28;20028;-71
2022/05/04 01:14:09;;;;;;;3.60;2.40;;;;;;;7.63;54.26;93955.44;4991565;28;20037;-73
2022/05/04 01:16:36;;;;;;;2.63;2.13;;;;;;;7.64;54.34;93955.13;4991169;28;20148;-69
2022/05/04 01:19:03;;;;;;;4.82;2.55;;;;;;;7.61;54.47;93958.38;4989272;28;20164;-69
2022/05/04 01:21:28;;;;;;;3.67;2.60;;;;;;;7.56;54.72;93963.75;4992421;28;20058;-69
2022/05/04 01:23:54;;;;;;;2.80;2.30;;;;;;;7.64;54.54;93949.84;4988127;28;20132;-67
2022/05/04 01:26:20;;;;;;;5.72;2.65;;;;;;;7.53;54.61;93929.13;4989604;28;20017;-68
2022/05/04 01:28:46;;;;;;;3.35;2.60;;;;;;;7.30;54.46;93891.94;4981397;28;20355;-68
2022/05/04 01:31:12;;;;;;;6.53;2.85;;;;;;;7.59;54.79;93941.97;4972904;28;20498;-69
2022/05/04 01:33:39;;;;;;;5.35;3.88;;;;;;;7.43;54.82;93921.38;4964902;28;20042;-69
2022/05/04 01:36:06;;;;;;;3.97;2.95;;;;;;;7.62;54.63;93949.34;4971326;28;20049;-69
2022/05/04 01:38:32;;;;;;;3.35;2.67;;;;;;;7.50;54.64;93937.66;4972331;28;20030;-68
2022/05/04 01:40:57;;;;;;;6.43;3.50;;;;;;;7.54;54.39;93943.91;4973647;28;20030;-69
2022/05/04 01:43:23;;;;;;;4.22;2.97;;;;;;;7.58;54.04;93953.63;4985195;28;20465;-69
2022/05/04 01:45:48;;;;;;;3.83;3.05;;;;;;;7.54;54.07;93950.00;4978661;28;20634;-68
2022/05/04 01:48:14;;;;;;;6.82;4.45;;;;;;;7.49;54.26;93946.66;4973206;28;20035;-68
2022/05/04 01:50:40;;;;;;;4.45;3.45;;;;;;;7.32;54.43;93930.53;4967807;28;20029;-68
2022/05/04 01:53:06;;;;;;;4.40;3.15;;;;;;;7.45;54.67;93957.03;4967811;28;20070;-69
2022/05/04 01:55:35;;;;;;;5.30;3.58;;;;;;;7.40;54.65;93951.81;4961776;28;20042;-68
2022/05/04 01:58:02;;;;;;;8.35;3.75;;;;;;;7.43;54.71;93948.63;4961874;28;20153;-68
2022/05/04 02:00:28;;;;;;;6.47;4.20;;;;;;;7.44;54.46;93944.88;4963156;28;20050;-68
2022/05/04 02:02:54;;;;;;;4.35;3.15;;;;;;;7.38;54.77;93942.63;4967531;28;20050;-69
2022/05/04 02:05:21;;;;;;;6.95;3.10;;;;;;;7.19;54.67;93903.75;4964588;28;20038;-69
2022/05/04 02:07:47;;;;;;;5.03;3.25;;;;;;;7.31;54.83;93937.69;4965333;28;20799;-69
2022/05/04 02:10:14;;;;;;;5.93;3.08;;;;;;;7.36;54.74;93942.91;4967845;28;20049;-68
2022/05/04 02:12:40;;;;;;;3.05;2.72;;;;;;;7.31;54.71;93940.34;4981165;28;20034;-69
2022/05/04 02:15:06;;;;;;;4.68;2.38;;;;;;;7.33;54.60;93948.00;4988595;28;20557;-70
2022/05/04 02:17:32;;;;;;;3.30;2.85;;;;;;;7.20;54.54;93923.03;4996906;28;20635;-69
2022/05/04 02:19:57;;;;;;;4.28;2.63;;;;;;;7.14;54.66;93913.63;4989663;28;20054;-69
2022/05/04 02:22:24;;;;;;;5.68;3.55;;;;;;;7.24;54.99;93937.25;4990134;28;20271;-68
2022/05/04 02:24:49;;;;;;;9.45;3.30;;;;;;;7.16;55.14;93927.34;4994773;28;20104;-68
2022/05/04 02:27:14;;;;;;;3.75;2.55;;;;;;;7.27;55.16;93928.75;4991014;28;20046;-69
2022/05/04 02:29:40;;;;;;;3.85;2.67;;;;;;;7.16;54.85;93912.25;4991040;28;20107;-68
2022/05/04 02:32:06;;;;;;;4.95;3.33;;;;;;;7.32;54.59;93935.84;4995715;28;20034;-68
2022/05/04 02:34:32;;;;;;;4.20;2.67;;;;;;;7.29;54.60;93945.13;4985304;28;20461;-68
2022/05/04 02:39:41;;;;;;;4.00;3.47;;;;;;;7.22;54.42;93948.16;4994182;28;20101;-68
2022/05/04 02:42:07;;;;;;;3.53;2.45;;;;;;;7.18;54.60;93941.06;4993453;28;20442;-69
2022/05/04 02:44:32;;;;;;;3.90;2.70;;;;;;;7.13;54.79;93938.50;4980695;28;20503;-69
2022/05/04 02:46:58;;;;;;;2.88;2.33;;;;;;;6.93;54.99;93915.00;4991016;28;20033;-68
2022/05/04 02:49:23;;;;;;;3.40;2.33;;;;;;;6.98;54.76;93914.94;4989595;28;20042;-68
2022/05/04 02:51:49;;;;;;;2.78;2.50;;;;;;;7.17;54.69;93942.16;4986457;28;20636;-69
2022/05/04 02:54:14;;;;;;;2.20;1.83;;;;;;;7.07;54.76;93924.56;4991866;28;20050;-68
2022/05/04 02:56:39;;;;;;;2.15;1.95;;;;;;;7.19;54.76;93950.59;4987253;28;20705;-68
2022/05/04 02:59:05;;;;;;;1.83;1.67;;;;;;;7.18;54.46;93949.00;4995447;28;20044;-69
2022/05/04 03:04:14;;;;;;;2.72;2.00;;;;;;;7.17;54.25;93965.94;4995708;28;20069;-68
2022/05/04 03:06:41;;;;;;;2.35;1.67;;;;;;;7.02;54.16;93958.25;4983001;28;20062;-68
2022/05/04 03:09:09;;;;;;;2.60;1.88;;;;;;;7.08;54.57;93978.25;4990380;28;20073;-69
2022/05/04 03:14:20;;;;;;;3.20;2.23;;;;;;;7.07;54.28;93995.19;4991016;28;20143;-69
2022/05/04 03:16:47;;;;;;;2.30;1.98;;;;;;;6.88;54.40;93975.91;4973105;28;20161;-68
2022/05/04 03:19:13;;;;;;;3.20;2.42;;;;;;;6.98;54.74;94002.19;4973374;28;20365;-69
2022/05/04 03:21:38;;;;;;;2.72;2.38;;;;;;;6.89;54.91;93980.13;4977482;28;20033;-69
2022/05/04 03:24:04;;;;;;;3.72;2.83;;;;;;;6.98;54.69;93995.06;4990593;28;20501;-69
2022/05/04 03:26:30;;;;;;;3.60;2.20;;;;;;;6.86;55.09;93978.81;4991013;28;20044;-67
2022/05/04 03:28:55;;;;;;;2.33;1.60;;;;;;;7.00;55.11;93986.81;4989586;28;20022;-68
2022/05/04 03:31:22;;;;;;;2.30;1.80;;;;;;;6.95;55.09;93981.59;4975284;28;20058;-69
2022/05/04 03:33:47;;;;;;;2.45;2.25;;;;;;;6.92;55.20;93966.31;4979664;28;20513;-68
2022/05/04 03:36:13;;;;;;;2.63;2.03;;;;;;;7.00;55.11;93979.66;4992222;28;20325;-68
2022/05/04 03:38:38;;;;;;;2.83;1.80;;;;;;;6.81;55.06;93961.16;4985561;28;20087;-69
2022/05/04 03:41:04;;;;;;;2.45;2.03;;;;;;;6.89;55.42;93975.63;4973242;28;20038;-69
2022/05/04 03:43:30;;;;;;;3.47;2.35;;;;;;;6.96;55.73;93981.31;4967746;28;20572;-69
2022/05/04 03:45:55;;;;;;;2.53;2.30;;;;;;;7.05;55.90;93992.03;4972860;28;20045;-68
2022/05/04 03:48:21;;;;;;;2.50;2.00;;;;;;;7.12;56.08;93995.13;4971663;28;20200;-68
2022/05/04 03:50:47;;;;;;;3.08;2.00;;;;;;;7.06;56.07;93967.16;4968208;28;20039;-68
2022/05/04 03:53:14;;;;;;;3.30;2.00;;;;;;;7.16;56.78;93975.75;4971912;28;20479;-68
2022/05/04 03:55:39;;;;;;;2.90;1.92;;;;;;;7.37;57.18;93993.97;4969742;28;20034;-69
2022/05/04 03:58:05;;;;;;;2.35;2.05;;;;;;;7.46;56.40;93990.38;4968247;28;20037;-70
2022/05/04 04:00:30;;;;;;;2.78;2.10;;;;;;;7.53;57.59;93977.53;4992967;28;20041;-68
2022/05/04 04:02:56;;;;;;;4.18;2.67;;;;;;;7.66;56.64;93984.75;4990353;28;20492;-68
2022/05/04 04:05:23;;;;;;;9.38;2.42;;;;;;;7.68;55.93;93969.34;4968522;28;20699;-68
2022/05/04 04:07:48;;;;;;;3.08;2.22;;;;;;;7.76;56.29;93980.38;4974002;28;20527;-68
2022/05/04 04:10:14;;;;;;;5.85;2.67;;;;;;;7.23;58.37;93997.34;4965888;28;20472;-69
2022/05/04 04:12:39;;;;;;;7.90;4.85;;;;;;;6.62;61.48;94010.59;4973925;28;20493;-73
2022/05/04 04:15:05;;;;;;;8.25;5.30;;;;;;;5.98;65.59;94019.69;4972802;28;20502;-70
2022/05/04 04:17:31;;;;;;;9.73;5.07;;;;;;;5.83;66.82;94024.31;4975101;28;20398;-68
2022/05/04 04:22:40;;;;;;;10.10;7.60;;;;;;;6.46;63.87;94019.75;4972761;28;20049;-69
2022/05/04 04:25:06;;;;;;;7.88;5.85;;;;;;;7.00;62.47;94039.69;4962998;28;20034;-68
2022/05/04 04:27:33;;;;;;;12.43;5.95;;;;;;;7.25;61.92;94028.78;4976099;28;20036;-68
2022/05/04 04:29:59;;;;;;;11.48;6.55;;;;;;;6.69;63.61;94032.19;4988425;28;20044;-68
2022/05/04 04:32:24;;;;;;;14.55;7.15;;;;;;;7.06;62.72;94017.41;4983783;28;20455;-68
2022/05/04 04:34:50;;;;;;;10.70;6.75;;;;;;;6.80;64.47;93998.44;4991044;28;20104;-68
2022/05/04 04:37:15;;;;;;;10.80;6.88;;;;;;;6.99;64.29;94017.00;4987852;28;20730;-68
2022/05/04 04:39:41;;;;;;;10.75;7.65;;;;;;;6.69;64.78;94018.97;4992650;28;20062;-69
2022/05/04 04:42:07;;;;;;;11.68;7.35;;;;;;;7.22;63.28;94027.50;4990662;28;20037;-68
2022/05/04 04:44:33;;;;;;;14.40;8.75;;;;;;;6.52;65.23;94034.47;4986934;28;20025;-70
2022/05/04 04:46:58;;;;;;;13.43;9.63;;;;;;;6.92;64.36;94037.69;4988170;28;20021;-68
2022/05/04 04:49:25;;;;;;;10.50;8.05;;;;;;;7.00;62.68;93998.19;4972206;28;20042;-68
2022/05/04 04:51:50;;;;;;;14.70;8.27;;;;;;;7.31;61.90;94019.72;4968975;28;20034;-68
2022/05/04 04:54:16;;;;;;;12.27;8.35;;;;;;;7.63;61.61;94024.25;4966611;28;20076;-68
2022/05/04 04:56:42;;;;;;;14.38;8.15;;;;;;;7.61;60.78;93990.13;4963736;28;20410;-68
2022/05/04 04:59:08;;;;;;;11.90;8.45;;;;;;;7.93;59.83;93999.16;4969737;28;20027;-69
2022/05/04 05:01:33;;;;;;;11.68;8.30;;;;;;;8.05;59.46;94002.13;4963839;28;20503;-69
2022/05/04 05:03:58;;;;;;;12.77;8.48;;;;;;;8.06;60.35;94020.38;4970245;28;20042;-68
2022/05/04 05:06:25;;;;;;;13.95;8.55;;;;;;;8.13;59.75;94004.09;4967886;28;20042;-70
2022/05/04 05:08:50;;;;;;;12.90;7.88;;;;;;;7.99;60.07;94033.22;4964810;28;20121;-69
2022/05/04 05:11:16;;;;;;;14.45;8.90;;;;;;;7.83;61.62;94034.53;4970334;28;20052;-68
2022/05/04 05:16:25;;;;;;;15.13;11.27;;;;;;;7.52;61.79;93978.63;4983323;28;20064;-69
2022/05/04 05:18:51;;;;;;;16.23;9.60;;;;;;;7.78;62.47;94004.72;4989292;28;20128;-68
2022/05/04 05:21:17;;;;;;;15.40;8.95;;;;;;;7.44;61.96;94012.88;4992092;28;20046;-69
2022/05/04 05:23:42;;;;;;;19.30;9.20;;;;;;;7.70;62.35;94038.69;4982998;28;20405;-69
2022/05/04 05:26:08;;;;;;;15.93;9.45;;;;;;;7.58;62.87;94043.63;4988661;28;20037;-68
2022/05/04 05:28:33;;;;;;;15.77;10.73;;;;;;;7.13;64.32;94015.22;4985209;28;20465;-69
2022/05/04 05:30:59;;;;;;;18.73;10.40;;;;;;;7.04;64.45;94030.94;4987297;28;20037;-68
2022/05/04 05:33:24;;;;;;;17.38;10.05;;;;;;;7.45;64.35;94054.16;4981575;28;20545;-69
2022/05/04 05:35:50;;;;;;;17.23;10.60;;;;;;;7.68;63.94;94051.41;4965516;28;20085;-69
2022/05/04 05:38:15;;;;;;;14.57;10.35;;;;;;;7.80;63.38;94048.34;4973976;28;20018;-68
2022/05/04 05:40:41;;;;;;;19.38;9.80;;;;;;;8.12;61.46;94027.16;4966243;28;20038;-68
2022/05/04 05:43:07;;;;;;;21.48;10.85;;;;;;;8.45;59.87;94011.19;4984014;28;20072;-69
2022/05/04 05:45:33;;;;;;;14.30;9.80;;;;;;;8.67;59.39;94034.34;4995288;28;20037;-69
2022/05/04 05:47:58;;;;;;;14.10;10.00;;;;;;;8.74;59.20;94030.25;4984919;28;20675;-69
2022/05/04 05:50:24;;;;;;;19.77;10.80;;;;;;;8.46;60.76;94031.31;4979364;28;20619;-69
2022/05/04 05:52:49;;;;;;;14.40;10.73;;;;;;;8.56;61.15;94021.28;4968756;28;20407;-69
2022/05/04 05:55:15;;;;;;;14.80;9.65;;;;;;;8.88;59.62;94025.72;4985288;28;20031;-70
2022/05/04 05:57:40;;;;;;;18.15;11.20;;;;;;;8.32;61.39;94028.66;4974967;28;20031;-68
2022/05/04 06:00:07;;;;;;;15.90;9.60;;;;;;;8.59;60.44;94028.69;4969847;28;20472;-69
2022/05/04 06:02:33;;;;;;;16.88;11.60;;;;;;;9.08;59.60;94023.72;4973105;28;20461;-69
2022/05/04 06:04:59;;;;;;;20.38;11.70;;;;;;;8.69;59.85;94008.34;4971730;28;20472;-67
2022/05/04 06:07:24;;;;;;;19.77;10.60;;;;;;;8.66;60.63;94027.50;4972299;28;20038;-70
2022/05/04 06:09:50;;;;;;;17.45;11.40;;;;;;;8.73;61.96;94033.19;4977223;28;20291;-68
2022/05/04 06:12:16;;;;;;;12.88;10.10;;;;;;;8.80;59.52;94030.94;4966457;28;20042;-68
2022/05/04 06:14:41;;;;;;;15.85;10.10;;;;;;;7.97;62.52;94031.94;4975862;28;20035;-68
2022/05/04 06:17:07;;;;;;;15.52;10.75;;;;;;;7.98;62.76;94033.50;4974233;28;20442;-69
2022/05/04 06:19:32;;;;;;;27.10;13.23;;;;;;;8.49;62.74;94034.16;4973910;28;20130;-69
2022/05/04 06:21:58;;;;;;;20.17;13.07;;;;;;;9.06;59.76;94047.88;4972034;28;20374;-69
2022/05/04 06:24:25;;;;;;;20.70;11.40;;;;;;;9.40;58.08;94050.88;4976001;28;20040;-68
2022/05/04 06:26:51;;;;;;;12.18;9.98;;;;;;;9.53;58.23;94051.16;4972173;28;20113;-69
2022/05/04 06:29:16;;;;;;;19.20;10.98;;;;;;;9.66;55.94;94050.31;4972755;28;20026;-69
2022/05/04 06:34:26;;;;;;;15.73;10.95;;;;;;;9.99;54.67;94035.69;4973717;28;20529;-69
2022/05/04 06:36:51;;;;;;;14.00;9.95;;;;;;;10.25;53.14;94036.63;4972838;28;20038;-68
2022/05/04 06:39:16;;;;;;;22.33;9.90;;;;;;;10.37;52.43;94027.34;4974615;28;20035;-69
2022/05/04 06:41:42;;;;;;;15.88;10.10;;;;;;;9.76;53.79;94044.75;4969563;28;20558;-69
2022/05/04 06:44:08;;;;;;;16.10;9.77;;;;;;;10.03;54.05;94036.66;4969677;28;20018;-69
2022/05/04 06:46:41;;;;;;;18.50;10.40;;;;;;;10.26;53.20;94018.81;4973194;28;20050;-69
2022/05/04 06:49:10;;;;;;;13.77;9.63;;;;;;;9.77;54.38;94046.34;4953369;28;21644;-68
2022/05/04 06:51:36;;;;;;;18.83;9.35;;;;;;;9.60;55.13;94046.19;4964261;28;20661;-69
2022/05/04 06:54:02;;;;;;;16.55;10.07;;;;;;;9.76;54.87;94020.88;4970156;28;20373;-69
2022/05/04 06:56:27;;;;;;;15.50;10.73;;;;;;;9.79;54.79;94025.56;4971235;28;20030;-69
2022/05/04 06:58:53;;;;;;;12.38;9.75;;;;;;;10.24;53.35;94024.44;4970360;28;20397;-68
2022/05/04 07:01:18;;;;;;;15.75;10.23;;;;;;;10.63;52.42;94036.19;4967436;28;20182;-68
2022/05/04 07:03:44;;;;;;;14.02;10.00;;;;;;;10.24;52.91;94029.75;4963341;28;21030;-69
2022/05/04 07:06:09;;;;;;;17.05;10.18;;;;;;;10.13;53.38;94015.13;4971738;28;20096;-69
2022/05/04 07:08:36;;;;;;;15.30;11.32;;;;;;;9.99;54.05;94048.97;4968655;28;20030;-68
2022/05/04 07:11:02;;;;;;;19.85;11.27;;;;;;;10.24;53.85;94050.22;4971682;28;20553;-69
2022/05/04 07:13:27;;;;;;;15.93;10.40;;;;;;;10.58;53.10;94047.75;4964201;28;20109;-68
2022/05/04 07:15:55;;;;;;;17.58;11.63;;;;;;;10.94;51.49;94042.25;4966651;28;20304;-68
2022/05/04 07:18:20;;;;;;;13.88;10.40;;;;;;;11.11;50.76;94034.31;4973710;28;20034;-69
2022/05/04 07:20:46;;;;;;;18.27;10.48;;;;;;;11.17;50.64;93992.34;4964925;28;20042;-68
2022/05/04 07:23:11;;;;;;;18.42;11.02;;;;;;;11.75;49.44;94050.53;4970827;28;20018;-69
2022/05/04 07:25:36;;;;;;;26.27;11.00;;;;;;;11.93;49.05;94049.41;4965926;28;20406;-68
2022/05/04 07:28:02;;;;;;;15.70;10.93;;;;;;;11.96;49.14;94046.13;4967129;28;20438;-68
2022/05/04 07:30:27;;;;;;;16.38;11.15;;;;;;;11.93;48.53;94038.75;4968414;28;20031;-69
2022/05/04 07:32:53;;;;;;;16.20;10.23;;;;;;;12.11;49.10;94036.84;4962634;28;20274;-69
2022/05/04 07:35:18;;;;;;;17.27;10.68;;;;;;;12.10;48.44;94026.50;4971582;28;20125;-70
2022/05/04 07:37:44;;;;;;;18.05;11.63;;;;;;;12.04;48.43;94005.34;4952707;28;21147;-69
2022/05/04 07:42:55;;;;;;;19.38;10.98;;;;;;;11.43;50.29;94029.66;4983021;28;20069;-70
2022/05/04 07:45:21;;;;;;;16.95;11.57;;;;;;;11.71;49.21;94011.50;4982728;28;20133;-69
2022/05/04 07:47:46;;;;;;;15.45;10.80;;;;;;;11.45;49.06;94017.59;4986170;28;20614;-68
2022/05/04 07:50:17;;;;;;;16.25;10.65;;;;;;;11.83;49.04;94036.41;4988456;28;20057;-69
2022/05/04 07:52:42;;;;;;;17.13;10.93;;;;;;;11.46;50.25;94010.38;4975630;28;21146;-69
2022/05/04 07:55:10;;;;;;;15.10;9.82;;;;;;;11.93;49.76;94022.75;4985558;28;20049;-69
2022/05/04 07:57:36;;;;;;;16.30;9.45;;;;;;;11.89;49.45;94016.50;4979393;28;20065;-69
2022/05/04 08:05:49;;;;;;;15.73;9.98;;;;;;;12.13;49.21;94017.84;4985729;28;20523;-68
2022/05/04 08:08:15;;;;;;;13.82;9.25;;;;;;;12.10;49.23;94031.81;4985641;28;20034;-70
2022/05/04 08:10:40;;;;;;;15.75;9.52;;;;;;;11.84;50.52;94019.31;4985309;28;20089;-69
2022/05/04 08:13:06;;;;;;;14.20;9.10;;;;;;;12.25;48.97;94031.31;4984342;28;20034;-70
2022/05/04 08:15:32;;;;;;;16.60;9.18;;;;;;;11.99;49.81;94028.69;4985717;28;20438;-69
2022/05/04 08:17:58;;;;;;;15.10;9.63;;;;;;;11.80;49.70;94026.38;4983884;28;20405;-69
2022/05/04 08:20:25;;;;;;;14.63;8.65;;;;;;;12.23;49.95;94017.50;4987219;28;20108;-68
2022/05/04 08:22:51;;;;;;;11.88;6.97;;;;;;;12.45;47.44;94012.75;5007186;28;20062;-68
2022/05/04 08:25:17;;;;;;;17.00;6.93;;;;;;;12.70;47.25;94021.00;4978024;28;21654;-68
2022/05/04 08:27:43;;;;;;;11.85;7.93;;;;;;;12.78;48.00;94014.84;4988124;28;20517;-69
2022/05/04 08:30:09;;;;;;;9.02;5.65;;;;;;;12.60;47.47;94010.69;4980411;28;20137;-69
2022/05/04 08:32:35;;;;;;;12.73;6.22;;;;;;;12.21;49.04;94017.06;4983107;28;20037;-69
2022/05/04 08:35:00;;;;;;;12.93;6.22;;;;;;;12.55;49.10;94018.84;4988799;28;20072;-68
2022/05/04 08:37:29;;;;;;;8.45;4.88;;;;;;;12.91;47.38;94013.81;4983130;28;20168;-69
2022/05/04 08:39:56;;;;;;;8.27;4.63;;;;;;;12.65;46.97;93987.28;4982578;28;20552;-67
2022/05/04 08:42:22;;;;;;;6.93;4.95;;;;;;;12.83;46.39;93994.09;4985324;28;20129;-68
2022/05/04 08:44:53;;;;;;;6.30;4.10;;;;;;;12.77;46.82;94011.38;4983585;28;20038;-68
2022/05/04 08:47:22;;;;;;;6.53;4.70;;;;;;;12.84;46.69;94014.34;4981860;28;20097;-69
2022/05/04 08:49:48;;;;;;;8.02;3.83;;;;;;;13.18;47.44;94009.91;4982540;28;20660;-70
2022/05/04 08:52:15;;;;;;;5.05;3.35;;;;;;;13.40;46.27;94006.16;4987472;28;20034;-68
2022/05/04 08:54:42;;;;;;;5.13;3.25;;;;;;;13.46;46.83;94013.63;4982008;28;20506;-69
2022/05/04 08:57:08;;;;;;;4.57;3.47;;;;;;;13.80;46.19;94019.84;4980582;28;20038;-68
2022/05/04 08:59:34;;;;;;;5.68;3.25;;;;;;;13.99;44.92;94006.78;4990021;28;20615;-69
2022/05/04 09:01:59;;;;;;;4.95;2.38;;;;;;;13.85;43.53;94012.41;4976968;28;20030;-69
2022/05/04 09:04:25;;;;;;;3.70;2.10;;;;;;;13.78;42.42;94012.19;4987154;28;20049;-68
2022/05/04 09:06:50;;;;;;;4.80;2.65;;;;;;;14.09;43.51;94006.34;4976052;28;20949;-68
2022/05/04 09:09:16;;;;;;;2.17;1.70;;;;;;;14.21;41.63;94003.72;4990169;28;20037;-71
2022/05/04 09:11:43;;;;;;;4.95;2.70;;;;;;;14.23;41.18;94001.50;4984103;28;20026;-70
2022/05/04 09:14:18;;;;;;;4.80;2.38;;;;;;;14.31;41.10;94000.63;4986135;28;20026;-71
2022/05/04 09:16:44;;;;;;;5.60;2.85;;;;;;;14.10;40.88;93981.97;4987828;28;20034;-70
2022/05/04 09:19:15;;;;;;;4.15;1.80;;;;;;;14.03;40.37;93997.00;4981449;28;20041;-71
2022/05/04 09:21:41;;;;;;;3.72;2.08;;;;;;;14.16;41.49;94003.94;4992853;28;20040;-70
2022/05/04 09:24:07;;;;;;;2.60;1.70;;;;;;;13.84;42.21;93994.03;4991736;28;20045;-70
2022/05/04 09:26:39;;;;;;;3.13;1.95;;;;;;;13.88;39.98;93973.56;4988410;28;20487;-70
2022/05/04 09:29:06;;;;;;;4.57;2.00;;;;;;;14.18;41.04;93993.69;4985751;28;20758;-71
2022/05/04 09:31:32;;;;;;;2.92;2.15;;;;;;;14.30;40.20;93995.63;4990774;28;20152;-70
2022/05/04 09:34:03;;;;;;;3.72;2.05;;;;;;;14.22;41.27;94007.19;4982812;28;20034;-71
2022/05/04 09:45:10;;;;;;;2.38;2.17;;;;;;;14.44;41.53;93975.47;4987835;28;20449;-70
2022/05/04 09:47:40;;;;;;;2.88;2.22;;;;;;;14.68;41.75;93990.78;4986665;28;20763;-70
2022/05/04 09:50:08;;;;;;;3.05;1.85;;;;;;;14.72;40.55;93988.22;4983483;28;20393;-70
2022/05/04 09:52:44;;;;;;;3.13;2.08;;;;;;;14.78;40.69;93978.84;4991028;28;20038;-70
2022/05/04 09:55:23;;;;;;;2.78;2.10;;;;;;;14.33;42.12;93979.66;4987587;28;20030;-71
2022/05/04 09:57:49;;;;;;;6.68;2.65;;;;;;;14.49;41.94;93967.22;4970825;28;20097;-70
2022/05/04 10:00:20;;;;;;;3.70;2.58;;;;;;;14.59;41.37;93969.47;4987902;28;20042;-69
2022/05/04 10:02:46;;;;;;;4.45;2.28;;;;;;;14.70;40.22;93977.06;4990757;28;20034;-70
2022/05/04 10:05:13;;;;;;;4.47;1.98;;;;;;;14.86;40.95;93972.63;4986658;28;20101;-70
2022/05/04 10:07:40;;;;;;;2.10;1.90;;;;;;;14.92;43.74;93973.94;4990439;28;20041;-70
2022/05/04 10:10:07;;;;;;;2.95;2.38;;;;;;;15.14;40.24;93970.78;4986967;28;20033;-71
2022/05/04 10:12:38;;;;;;;3.63;1.98;;;;;;;14.99;40.77;93971.47;4984935;28;20105;-69
2022/05/04 10:15:15;;;;;;;2.42;2.10;;;;;;;14.89;40.51;93958.53;4979127;28;20573;-70
2022/05/04 10:18:04;;;;;;;2.97;1.98;;;;;;;14.85;40.75;93968.38;4972301;28;20449;-69
2022/05/04 10:20:44;;;;;;;4.38;2.00;;;;;;;15.00;39.93;93943.59;4962014;28;20022;-69
2022/05/04 10:23:21;;;;;;;2.92;1.88;;;;;;;14.94;39.98;93939.56;4961035;28;20042;-70
2022/05/04 10:25:48;;;;;;;2.55;2.00;;;;;;;14.57;41.23;93920.06;4958302;28;20429;-70
2022/05/04 10:28:15;;;;;;;5.35;2.25;;;;;;;15.14;40.22;93954.72;4967847;28;20585;-69
2022/05/04 10:30:50;;;;;;;3.70;2.95;;;;;;;15.23;39.75;93952.69;4959050;28;20121;-70
2022/05/04 10:33:18;;;;;;;3.15;1.75;;;;;;;15.17;39.02;93951.34;4965144;28;20376;-70
2022/05/04 10:35:43;;;;;;;2.40;1.60;;;;;;;15.22;38.34;93951.13;4960534;28;20133;-70
2022/05/04 10:38:17;;;;;;;3.47;2.10;;;;;;;15.13;38.71;93942.44;4964055;28;20122;-70
2022/05/04 10:40:47;;;;;;;4.22;2.05;;;;;;;15.07;40.54;93943.78;4958692;28;20417;-69
2022/05/04 10:43:18;;;;;;;2.92;1.60;;;;;;;15.02;38.96;93950.16;4965168;28;20034;-71
2022/05/04 10:45:46;;;;;;;1.90;1.60;;;;;;;15.11;38.56;93928.59;4972431;28;20130;-69
2022/05/04 10:48:20;;;;;;;2.15;1.55;;;;;;;15.25;38.72;93937.06;4963223;28;20038;-69
2022/05/04 10:50:55;;;;;;;2.17;1.73;;;;;;;15.51;37.64;93936.66;4967445;28;20113;-71
2022/05/04 10:53:23;;;;;;;2.17;1.75;;;;;;;15.61;37.04;93935.41;4981981;28;20084;-72
2022/05/04 10:56:07;;;;;;;2.13;1.60;;;;;;;15.74;37.59;93928.88;4973487;28;20169;-70
2022/05/04 10:58:38;;;;;;;2.67;1.48;;;;;;;15.76;37.19;93923.94;4967423;28;20049;-69
2022/05/04 11:01:14;;;;;;;4.57;1.58;;;;;;;15.95;36.97;93932.13;4969393;28;20033;-70
2022/05/04 11:03:56;;;;;;;2.15;1.58;;;;;;;15.97;36.12;93934.47;4967019;28;20391;-70
2022/05/04 11:06:31;;;;;;;2.53;1.55;;;;;;;15.70;36.46;93936.81;4968729;28;20046;-71
2022/05/04 11:09:02;;;;;;;1.95;1.65;;;;;;;15.28;36.97;93906.91;4970436;28;20570;-70
2022/05/04 11:11:27;;;;;;;4.57;1.83;;;;;;;15.56;36.37;93895.44;4969362;28;20030;-70
2022/05/04 11:13:53;;;;;;;2.67;2.03;;;;;;;15.77;37.10;93917.47;4965799;28;20053;-70
2022/05/04 11:16:23;;;;;;;3.33;2.60;;;;;;;16.01;37.21;93916.56;4969739;28;20152;-70
2022/05/04 11:18:48;;;;;;;2.63;1.80;;;;;;;16.20;37.05;93914.75;4965964;28;20038;-70
2022/05/04 11:21:15;;;;;;;3.10;1.65;;;;;;;16.19;36.62;93909.72;4967482;28;20286;-70
2022/05/04 11:23:49;;;;;;;4.72;1.73;;;;;;;15.85;36.74;93849.47;4968082;28;20030;-70
2022/05/04 11:26:22;;;;;;;1.80;1.48;;;;;;;16.41;36.20;93908.38;4985436;28;20502;-69
2022/05/04 11:28:49;;;;;;;1.80;1.52;;;;;;;16.65;35.86;93908.19;4982453;28;20970;-70
2022/05/04 11:31:14;;;;;;;2.25;1.67;;;;;;;16.70;35.48;93892.59;4970955;28;20410;-71
2022/05/04 11:33:42;;;;;;;3.78;1.42;;;;;;;16.37;36.35;93904.84;4963985;28;20038;-70
2022/05/04 11:36:07;;;;;;;2.03;1.60;;;;;;;16.50;35.38;93906.31;4969198;28;20051;-70
2022/05/04 11:38:32;;;;;;;4.22;1.70;;;;;;;16.53;36.58;93889.50;4965055;28;20370;-69
2022/05/04 11:41:01;;;;;;;1.70;1.40;;;;;;;16.69;34.97;93899.09;4971149;28;20157;-70
2022/05/04 11:43:28;;;;;;;3.35;1.40;;;;;;;16.87;34.60;93899.47;4981471;28;21357;-70
2022/05/04 11:45:54;;;;;;;2.80;2.00;;;;;;;16.61;35.07;93897.38;4965079;28;21928;-69
2022/05/04 11:48:21;;;;;;;5.45;1.48;;;;;;;16.75;35.08;93900.38;4956987;28;20140;-70
2022/05/04 11:50:49;;;;;;;2.00;1.65;;;;;;;16.66;35.01;93877.53;4968729;28;20034;-70
2022/05/04 11:53:15;;;;;;;2.45;1.55;;;;;;;16.95;35.76;93893.16;4959036;28;20028;-70
2022/05/04 11:55:41;;;;;;;3.40;1.70;;;;;;;17.06;35.08;93890.69;4969626;28;20047;-69
2022/05/04 11:58:14;;;;;;;2.78;1.65;;;;;;;17.12;34.17;93894.66;4963824;28;20046;-69
2022/05/04 12:00:42;;;;;;;3.42;1.67;;;;;;;17.25;34.63;93898.03;4972881;28;20037;-70
2022/05/04 12:03:10;;;;;;;4.78;2.55;;;;;;;17.25;33.34;93895.34;4985668;28;20116;-71
2022/05/04 12:05:39;;;;;;;2.92;1.95;;;;;;;17.18;33.48;93887.91;5004778;28;20165;-70